sensor_id;sensor_type;location;lat;lon;timestamp;pressure;altitude;pressure_sealevel;temperature;humidity
29879;BME280;16752;53.364;-1.488;2023-12-29T00:01:46;98663.41;;;13.49;42.19
29879;BME280;16752;53.364;-1.488;2023-12-29T00:04:31;98699.16;;;14.00;41.10
29879;BME280;16752;53.364;-1.488;2023-12-29T00:07:15;98693.91;;;13.33;42.50
29879;BME280;16752;53.364;-1.488;2023-12-29T00:09:59;98684.28;;;13.50;41.67
29879;BME280;16752;53.364;-1.488;2023-12-29T00:12:43;98702.75;;;12.98;42.38
29879;BME280;16752;53.364;-1.488;2023-12-29T00:15:28;98707.91;;;13.08;42.29
29879;BME280;16752;53.364;-1.488;2023-12-29T00:18:12;98688.16;;;14.13;40.70
29879;BME280;16752;53.364;-1.488;2023-12-29T00:20:55;98687.66;;;14.17;40.30
29879;BME280;16752;53.364;-1.488;2023-12-29T00:23:39;98702.59;;;13.26;41.85
29879;BME280;16752;53.364;-1.488;2023-12-29T00:26:23;98697.00;;;13.71;41.22
29879;BME280;16752;53.364;-1.488;2023-12-29T00:29:07;98685.84;;;14.18;40.40
29879;BME280;16752;53.364;-1.488;2023-12-29T00:31:51;98707.13;;;13.50;42.37
29879;BME280;16752;53.364;-1.488;2023-12-29T00:34:35;98688.00;;;13.31;41.65
29879;BME280;16752;53.364;-1.488;2023-12-29T00:37:21;98702.53;;;13.52;41.58
29879;BME280;16752;53.364;-1.488;2023-12-29T00:40:06;98705.84;;;13.20;41.91
29879;BME280;16752;53.364;-1.488;2023-12-29T00:42:50;98693.38;;;12.96;42.35
29879;BME280;16752;53.364;-1.488;2023-12-29T00:45:34;98707.00;;;12.91;43.69
29879;BME280;16752;53.364;-1.488;2023-12-29T00:48:20;98692.88;;;12.92;42.39
29879;BME280;16752;53.364;-1.488;2023-12-29T00:51:04;98712.59;;;12.62;43.33
29879;BME280;16752;53.364;-1.488;2023-12-29T00:53:48;98642.97;;;12.14;43.73
29879;BME280;16752;53.364;-1.488;2023-12-29T00:56:32;98699.41;;;13.48;41.77
29879;BME280;16752;53.364;-1.488;2023-12-29T00:59:16;98680.56;;;14.01;40.55
29879;BME280;16752;53.364;-1.488;2023-12-29T01:01:59;98679.25;;;13.97;40.17
29879;BME280;16752;53.364;-1.488;2023-12-29T01:04:43;98677.94;;;13.93;40.61
29879;BME280;16752;53.364;-1.488;2023-12-29T01:07:27;98675.44;;;13.75;40.83
29879;BME280;16752;53.364;-1.488;2023-12-29T01:10:11;98694.53;;;13.77;41.30
29879;BME280;16752;53.364;-1.488;2023-12-29T01:12:55;98686.00;;;12.99;42.86
29879;BME280;16752;53.364;-1.488;2023-12-29T01:15:39;98683.44;;;13.07;42.70
29879;BME280;16752;53.364;-1.488;2023-12-29T01:18:24;98691.94;;;13.27;42.63
29879;BME280;16752;53.364;-1.488;2023-12-29T01:21:08;98643.63;;;13.28;42.14
29879;BME280;16752;53.364;-1.488;2023-12-29T01:23:52;98661.75;;;13.13;42.22
29879;BME280;16752;53.364;-1.488;2023-12-29T01:26:37;98688.78;;;13.74;41.57
29879;BME280;16752;53.364;-1.488;2023-12-29T01:29:22;98669.41;;;12.39;43.86
29879;BME280;16752;53.364;-1.488;2023-12-29T01:32:06;98686.00;;;13.25;42.18
29879;BME280;16752;53.364;-1.488;2023-12-29T01:34:54;98645.69;;;13.67;41.77
29879;BME280;16752;53.364;-1.488;2023-12-29T01:37:39;98658.00;;;13.16;41.70
29879;BME280;16752;53.364;-1.488;2023-12-29T01:40:23;98677.75;;;13.20;42.63
29879;BME280;16752;53.364;-1.488;2023-12-29T01:43:06;98689.38;;;13.52;41.68
29879;BME280;16752;53.364;-1.488;2023-12-29T01:45:50;98677.75;;;13.20;42.46
29879;BME280;16752;53.364;-1.488;2023-12-29T01:48:34;98681.97;;;12.53;44.06
29879;BME280;16752;53.364;-1.488;2023-12-29T01:51:20;98680.81;;;13.07;42.79
29879;BME280;16752;53.364;-1.488;2023-12-29T01:54:06;98691.31;;;13.07;42.82
29879;BME280;16752;53.364;-1.488;2023-12-29T01:56:51;98679.78;;;13.42;41.78
29879;BME280;16752;53.364;-1.488;2023-12-29T01:59:38;98682.16;;;13.62;41.62
29879;BME280;16752;53.364;-1.488;2023-12-29T02:02:23;98685.47;;;13.80;41.01
29879;BME280;16752;53.364;-1.488;2023-12-29T02:05:07;98689.19;;;13.11;42.07
29879;BME280;16752;53.364;-1.488;2023-12-29T02:07:51;98660.00;;;13.22;41.76
29879;BME280;16752;53.364;-1.488;2023-12-29T02:10:35;98683.63;;;12.54;43.27
29879;BME280;16752;53.364;-1.488;2023-12-29T02:13:21;98637.75;;;12.74;42.37
29879;BME280;16752;53.364;-1.488;2023-12-29T02:16:12;98668.53;;;13.66;40.70
29879;BME280;16752;53.364;-1.488;2023-12-29T02:19:07;98665.25;;;14.05;40.13
29879;BME280;16752;53.364;-1.488;2023-12-29T02:21:53;98676.47;;;12.98;42.67
29879;BME280;16752;53.364;-1.488;2023-12-29T02:24:38;98673.47;;;12.33;43.27
29879;BME280;16752;53.364;-1.488;2023-12-29T02:27:43;98688.81;;;13.24;42.15
29879;BME280;16752;53.364;-1.488;2023-12-29T02:30:41;98667.47;;;13.43;41.69
29879;BME280;16752;53.364;-1.488;2023-12-29T02:33:27;98674.72;;;13.07;41.67
29879;BME280;16752;53.364;-1.488;2023-12-29T02:36:13;98650.63;;;13.20;41.53
29879;BME280;16752;53.364;-1.488;2023-12-29T02:38:59;98689.38;;;13.52;41.73
29879;BME280;16752;53.364;-1.488;2023-12-29T02:41:43;98683.50;;;12.90;42.13
29879;BME280;16752;53.364;-1.488;2023-12-29T02:44:27;98679.13;;;13.40;41.20
29879;BME280;16752;53.364;-1.488;2023-12-29T02:47:11;98666.44;;;12.60;42.67
29879;BME280;16752;53.364;-1.488;2023-12-29T02:49:54;98650.47;;;12.87;42.58
29879;BME280;16752;53.364;-1.488;2023-12-29T02:52:38;98656.22;;;12.31;43.48
29879;BME280;16752;53.364;-1.488;2023-12-29T02:55:22;98654.25;;;12.84;41.89
29879;BME280;16752;53.364;-1.488;2023-12-29T02:58:06;98569.13;;;12.77;41.87
29879;BME280;16752;53.364;-1.488;2023-12-29T03:00:50;98652.69;;;12.74;42.86
29879;BME280;16752;53.364;-1.488;2023-12-29T03:03:34;98647.50;;;12.30;43.83
29879;BME280;16752;53.364;-1.488;2023-12-29T03:06:18;98645.19;;;12.53;43.38
29879;BME280;16752;53.364;-1.488;2023-12-29T03:09:02;98676.19;;;13.43;41.70
29879;BME280;16752;53.364;-1.488;2023-12-29T03:11:46;98662.84;;;13.29;41.78
29879;BME280;16752;53.364;-1.488;2023-12-29T03:14:30;98663.06;;;13.52;41.05
29879;BME280;16752;53.364;-1.488;2023-12-29T03:17:14;98669.00;;;13.62;40.71
29879;BME280;16752;53.364;-1.488;2023-12-29T03:19:58;98655.09;;;12.93;41.98
29879;BME280;16752;53.364;-1.488;2023-12-29T03:22:42;98663.16;;;13.26;41.07
29879;BME280;16752;53.364;-1.488;2023-12-29T03:25:26;98634.31;;;13.08;41.41
29879;BME280;16752;53.364;-1.488;2023-12-29T03:28:10;98651.38;;;12.44;42.94
29879;BME280;16752;53.364;-1.488;2023-12-29T03:30:54;98657.38;;;13.22;41.60
29879;BME280;16752;53.364;-1.488;2023-12-29T03:33:38;98647.78;;;13.63;40.85
29879;BME280;16752;53.364;-1.488;2023-12-29T03:36:23;98666.59;;;12.92;42.46
29879;BME280;16752;53.364;-1.488;2023-12-29T03:39:07;98651.56;;;13.10;42.05
29879;BME280;16752;53.364;-1.488;2023-12-29T03:41:51;98669.44;;;13.33;41.42
29879;BME280;16752;53.364;-1.488;2023-12-29T03:44:35;98633.16;;;13.02;41.72
29879;BME280;16752;53.364;-1.488;2023-12-29T03:47:19;98646.34;;;12.50;42.95
29879;BME280;16752;53.364;-1.488;2023-12-29T03:50:03;98663.44;;;12.80;42.42
29879;BME280;16752;53.364;-1.488;2023-12-29T03:52:47;98638.03;;;12.11;43.35
29879;BME280;16752;53.364;-1.488;2023-12-29T03:55:31;98646.53;;;12.83;42.16
29879;BME280;16752;53.364;-1.488;2023-12-29T03:58:15;98624.81;;;12.21;43.56
29879;BME280;16752;53.364;-1.488;2023-12-29T04:00:59;98603.31;;;12.17;43.21
29879;BME280;16752;53.364;-1.488;2023-12-29T04:03:43;98603.56;;;12.66;42.38
29879;BME280;16752;53.364;-1.488;2023-12-29T04:06:27;98636.72;;;13.35;40.96
29879;BME280;16752;53.364;-1.488;2023-12-29T04:09:11;98635.56;;;13.38;41.11
29879;BME280;16752;53.364;-1.488;2023-12-29T04:11:55;98657.31;;;13.14;41.83
29879;BME280;16752;53.364;-1.488;2023-12-29T04:14:39;98627.91;;;13.10;41.71
29879;BME280;16752;53.364;-1.488;2023-12-29T04:17:23;98625.38;;;12.93;41.68
29879;BME280;16752;53.364;-1.488;2023-12-29T04:20:07;98618.31;;;13.27;41.03
29879;BME280;16752;53.364;-1.488;2023-12-29T04:22:52;98578.66;;;12.36;42.56
29879;BME280;16752;53.364;-1.488;2023-12-29T04:25:36;98629.47;;;12.95;42.43
29879;BME280;16752;53.364;-1.488;2023-12-29T04:28:20;98627.84;;;12.60;42.35
29879;BME280;16752;53.364;-1.488;2023-12-29T04:31:04;98591.81;;;12.44;42.45
29879;BME280;16752;53.364;-1.488;2023-12-29T04:33:48;98656.84;;;12.24;43.35
29879;BME280;16752;53.364;-1.488;2023-12-29T04:36:32;98620.31;;;12.13;43.16
29879;BME280;16752;53.364;-1.488;2023-12-29T04:39:16;98635.09;;;12.66;42.03
29879;BME280;16752;53.364;-1.488;2023-12-29T04:41:59;98647.53;;;12.12;42.44
29879;BME280;16752;53.364;-1.488;2023-12-29T04:44:44;98667.59;;;13.25;40.60
29879;BME280;16752;53.364;-1.488;2023-12-29T04:47:28;98647.81;;;12.53;41.34
29879;BME280;16752;53.364;-1.488;2023-12-29T04:50:12;98638.09;;;13.05;40.38
29879;BME280;16752;53.364;-1.488;2023-12-29T04:52:56;98661.63;;;12.55;40.94
29879;BME280;16752;53.364;-1.488;2023-12-29T04:55:40;98638.50;;;12.33;41.62
29879;BME280;16752;53.364;-1.488;2023-12-29T04:58:24;98626.63;;;12.46;41.26
29879;BME280;16752;53.364;-1.488;2023-12-29T05:01:08;98627.56;;;12.37;41.67
29879;BME280;16752;53.364;-1.488;2023-12-29T05:03:51;98634.28;;;12.66;40.32
29879;BME280;16752;53.364;-1.488;2023-12-29T05:06:35;98660.06;;;13.30;39.64
29879;BME280;16752;53.364;-1.488;2023-12-29T05:09:19;98666.31;;;12.43;41.55
29879;BME280;16752;53.364;-1.488;2023-12-29T05:12:04;98667.06;;;12.88;40.96
29879;BME280;16752;53.364;-1.488;2023-12-29T05:14:48;98654.47;;;12.99;40.03
29879;BME280;16752;53.364;-1.488;2023-12-29T05:17:32;98667.81;;;12.46;41.29
29879;BME280;16752;53.364;-1.488;2023-12-29T05:20:16;98641.69;;;12.18;41.69
29879;BME280;16752;53.364;-1.488;2023-12-29T05:23:00;98659.19;;;12.88;40.40
29879;BME280;16752;53.364;-1.488;2023-12-29T05:25:44;98668.75;;;12.37;41.21
29879;BME280;16752;53.364;-1.488;2023-12-29T05:28:28;98669.09;;;12.42;40.83
29879;BME280;16752;53.364;-1.488;2023-12-29T05:31:12;98663.09;;;12.32;40.97
29879;BME280;16752;53.364;-1.488;2023-12-29T05:33:56;98653.38;;;13.10;39.92
29879;BME280;16752;53.364;-1.488;2023-12-29T05:36:40;98694.03;;;12.64;41.37
29879;BME280;16752;53.364;-1.488;2023-12-29T05:39:26;98693.25;;;12.71;41.45
29879;BME280;16752;53.364;-1.488;2023-12-29T05:42:09;98688.53;;;12.31;42.01
29879;BME280;16752;53.364;-1.488;2023-12-29T05:44:54;98702.78;;;11.57;43.01
29879;BME280;16752;53.364;-1.488;2023-12-29T05:47:38;98700.28;;;12.97;40.15
29879;BME280;16752;53.364;-1.488;2023-12-29T05:50:22;98704.81;;;12.35;42.13
29879;BME280;16752;53.364;-1.488;2023-12-29T05:53:06;98708.63;;;11.97;42.27
29879;BME280;16752;53.364;-1.488;2023-12-29T05:55:50;98717.09;;;12.52;40.96
29879;BME280;16752;53.364;-1.488;2023-12-29T05:58:34;98702.78;;;12.72;40.37
29879;BME280;16752;53.364;-1.488;2023-12-29T06:01:19;98668.13;;;12.69;40.17
29879;BME280;16752;53.364;-1.488;2023-12-29T06:04:03;98684.53;;;12.01;41.81
29879;BME280;16752;53.364;-1.488;2023-12-29T06:06:47;98702.59;;;13.00;39.71
29879;BME280;16752;53.364;-1.488;2023-12-29T06:09:31;98692.31;;;12.29;41.04
29879;BME280;16752;53.364;-1.488;2023-12-29T06:12:15;98699.97;;;12.66;40.73
29879;BME280;16752;53.364;-1.488;2023-12-29T06:14:59;98674.41;;;12.50;40.05
29879;BME280;16752;53.364;-1.488;2023-12-29T06:17:43;98676.34;;;12.22;40.94
29879;BME280;16752;53.364;-1.488;2023-12-29T06:20:27;98690.41;;;12.91;39.93
29879;BME280;16752;53.364;-1.488;2023-12-29T06:23:11;98700.41;;;12.87;39.47
29879;BME280;16752;53.364;-1.488;2023-12-29T06:25:55;98680.47;;;12.07;41.22
29879;BME280;16752;53.364;-1.488;2023-12-29T06:28:39;98712.97;;;12.75;40.05
29879;BME280;16752;53.364;-1.488;2023-12-29T06:31:23;98713.50;;;11.37;43.21
29879;BME280;16752;53.364;-1.488;2023-12-29T06:34:08;98695.41;;;13.02;40.16
29879;BME280;16752;53.364;-1.488;2023-12-29T06:36:52;98712.41;;;11.84;42.30
29879;BME280;16752;53.364;-1.488;2023-12-29T06:39:36;98692.94;;;12.48;40.86
29879;BME280;16752;53.364;-1.488;2023-12-29T06:42:20;98725.06;;;12.86;40.07
29879;BME280;16752;53.364;-1.488;2023-12-29T06:45:04;98699.84;;;12.75;40.00
29879;BME280;16752;53.364;-1.488;2023-12-29T06:47:50;98727.38;;;12.63;41.00
29879;BME280;16752;53.364;-1.488;2023-12-29T06:50:35;98720.97;;;12.92;39.87
29879;BME280;16752;53.364;-1.488;2023-12-29T06:53:20;98715.91;;;12.98;39.66
29879;BME280;16752;53.364;-1.488;2023-12-29T06:56:04;98721.44;;;12.00;41.60
29879;BME280;16752;53.364;-1.488;2023-12-29T06:58:48;98722.16;;;12.10;41.31
29879;BME280;16752;53.364;-1.488;2023-12-29T07:01:32;98707.16;;;12.38;41.23
29879;BME280;16752;53.364;-1.488;2023-12-29T07:04:16;98731.91;;;12.35;41.33
29879;BME280;16752;53.364;-1.488;2023-12-29T07:07:00;98684.56;;;12.45;40.50
29879;BME280;16752;53.364;-1.488;2023-12-29T07:09:45;98723.06;;;11.55;42.06
29879;BME280;16752;53.364;-1.488;2023-12-29T07:12:29;98738.38;;;12.41;40.32
29879;BME280;16752;53.364;-1.488;2023-12-29T07:15:13;98718.25;;;12.14;39.87
29879;BME280;16752;53.364;-1.488;2023-12-29T07:18:00;98743.44;;;11.89;41.18
29879;BME280;16752;53.364;-1.488;2023-12-29T07:20:44;98760.66;;;12.37;40.47
29879;BME280;16752;53.364;-1.488;2023-12-29T07:23:28;98743.78;;;13.17;39.25
29879;BME280;16752;53.364;-1.488;2023-12-29T07:26:12;98741.16;;;12.65;39.85
29879;BME280;16752;53.364;-1.488;2023-12-29T07:28:56;98734.94;;;12.66;39.96
29879;BME280;16752;53.364;-1.488;2023-12-29T07:31:40;98793.50;;;12.41;40.41
29879;BME280;16752;53.364;-1.488;2023-12-29T07:34:24;98752.25;;;13.03;39.08
29879;BME280;16752;53.364;-1.488;2023-12-29T07:37:09;98773.09;;;12.35;40.65
29879;BME280;16752;53.364;-1.488;2023-12-29T07:39:53;98771.94;;;12.99;39.19
29879;BME280;16752;53.364;-1.488;2023-12-29T07:42:38;98760.06;;;12.69;39.54
29879;BME280;16752;53.364;-1.488;2023-12-29T07:45:23;98815.56;;;12.30;40.57
29879;BME280;16752;53.364;-1.488;2023-12-29T07:48:07;98804.44;;;12.72;40.11
29879;BME280;16752;53.364;-1.488;2023-12-29T07:50:51;98752.69;;;11.66;41.42
29879;BME280;16752;53.364;-1.488;2023-12-29T07:53:35;98788.84;;;11.99;40.91
29879;BME280;16752;53.364;-1.488;2023-12-29T07:56:19;98810.16;;;11.86;41.67
29879;BME280;16752;53.364;-1.488;2023-12-29T07:59:04;98800.75;;;11.29;42.77
29879;BME280;16752;53.364;-1.488;2023-12-29T08:01:48;98801.69;;;12.38;40.51
29879;BME280;16752;53.364;-1.488;2023-12-29T08:04:32;98828.88;;;12.01;41.59
29879;BME280;16752;53.364;-1.488;2023-12-29T08:07:16;98823.56;;;12.82;39.94
29879;BME280;16752;53.364;-1.488;2023-12-29T08:10:00;98827.84;;;12.83;40.28
29879;BME280;16752;53.364;-1.488;2023-12-29T08:12:44;98839.72;;;12.69;40.61
29879;BME280;16752;53.364;-1.488;2023-12-29T08:15:28;98835.31;;;12.96;40.25
29879;BME280;16752;53.364;-1.488;2023-12-29T08:18:12;98819.72;;;12.94;40.12
29879;BME280;16752;53.364;-1.488;2023-12-29T08:20:56;98789.84;;;12.77;39.96
29879;BME280;16752;53.364;-1.488;2023-12-29T08:23:43;98829.72;;;12.55;40.57
29879;BME280;16752;53.364;-1.488;2023-12-29T08:26:27;98847.00;;;12.58;41.12
29879;BME280;16752;53.364;-1.488;2023-12-29T08:29:12;98847.00;;;12.58;41.05
29879;BME280;16752;53.364;-1.488;2023-12-29T08:31:56;98834.31;;;13.40;38.94
29879;BME280;16752;53.364;-1.488;2023-12-29T08:34:40;98833.00;;;12.93;40.10
29879;BME280;16752;53.364;-1.488;2023-12-29T08:37:24;98858.25;;;12.85;40.29
29879;BME280;16752;53.364;-1.488;2023-12-29T08:40:08;98868.41;;;12.45;41.64
29879;BME280;16752;53.364;-1.488;2023-12-29T08:42:52;98862.53;;;12.51;41.30
29879;BME280;16752;53.364;-1.488;2023-12-29T08:45:36;98863.34;;;12.87;40.77
29879;BME280;16752;53.364;-1.488;2023-12-29T08:48:22;98883.94;;;13.35;40.28
29879;BME280;16752;53.364;-1.488;2023-12-29T08:51:07;98886.72;;;13.34;40.03
29879;BME280;16752;53.364;-1.488;2023-12-29T08:53:51;98898.34;;;12.52;41.80
29879;BME280;16752;53.364;-1.488;2023-12-29T08:56:35;98878.44;;;12.04;42.43
29879;BME280;16752;53.364;-1.488;2023-12-29T08:59:19;98888.34;;;13.09;41.23
29879;BME280;16752;53.364;-1.488;2023-12-29T09:02:03;98863.59;;;11.58;43.78
29879;BME280;16752;53.364;-1.488;2023-12-29T09:04:47;98876.44;;;12.61;41.94
29879;BME280;16752;53.364;-1.488;2023-12-29T09:07:31;98909.16;;;11.47;44.21
29879;BME280;16752;53.364;-1.488;2023-12-29T09:10:15;98907.41;;;13.11;41.35
29879;BME280;16752;53.364;-1.488;2023-12-29T09:12:59;98874.53;;;13.07;40.58
29879;BME280;16752;53.364;-1.488;2023-12-29T09:15:43;98891.66;;;12.93;40.28
29879;BME280;16752;53.364;-1.488;2023-12-29T09:18:27;98874.94;;;12.59;41.58
29879;BME280;16752;53.364;-1.488;2023-12-29T09:21:11;98903.88;;;13.20;40.42
29879;BME280;16752;53.364;-1.488;2023-12-29T09:23:56;98877.09;;;12.00;42.09
29879;BME280;16752;53.364;-1.488;2023-12-29T09:26:39;98882.13;;;11.84;42.94
29879;BME280;16752;53.364;-1.488;2023-12-29T09:29:23;98885.25;;;12.96;40.48
29879;BME280;16752;53.364;-1.488;2023-12-29T09:32:07;98905.63;;;12.40;41.40
29879;BME280;16752;53.364;-1.488;2023-12-29T09:34:52;98908.75;;;13.15;40.55
29879;BME280;16752;53.364;-1.488;2023-12-29T09:37:36;98889.09;;;12.48;41.33
29879;BME280;16752;53.364;-1.488;2023-12-29T09:40:19;98891.75;;;12.83;40.11
29879;BME280;16752;53.364;-1.488;2023-12-29T09:43:04;98907.00;;;12.35;42.04
29879;BME280;16752;53.364;-1.488;2023-12-29T09:46:19;98912.81;;;12.11;42.50
29879;BME280;16752;53.364;-1.488;2023-12-29T09:49:40;98906.22;;;12.52;42.17
29879;BME280;16752;53.364;-1.488;2023-12-29T09:53:03;98902.84;;;12.77;41.40
29879;BME280;16752;53.364;-1.488;2023-12-29T09:55:53;98910.81;;;12.22;42.71
29879;BME280;16752;53.364;-1.488;2023-12-29T09:58:38;98919.91;;;12.28;42.94
29879;BME280;16752;53.364;-1.488;2023-12-29T10:01:53;98905.59;;;13.11;41.37
29879;BME280;16752;53.364;-1.488;2023-12-29T10:05:01;98908.63;;;12.99;41.44
29879;BME280;16752;53.364;-1.488;2023-12-29T10:08:24;98923.91;;;12.50;42.05
29879;BME280;16752;53.364;-1.488;2023-12-29T10:11:45;98921.09;;;12.61;42.07
29879;BME280;16752;53.364;-1.488;2023-12-29T10:15:15;98919.72;;;12.57;42.71
29879;BME280;16752;53.364;-1.488;2023-12-29T10:18:22;98916.13;;;12.94;41.66
29879;BME280;16752;53.364;-1.488;2023-12-29T10:24:14;98915.16;;;13.30;40.86
29879;BME280;16752;53.364;-1.488;2023-12-29T10:26:59;98925.75;;;13.03;41.03
29879;BME280;16752;53.364;-1.488;2023-12-29T10:29:44;98915.53;;;12.46;41.74
29879;BME280;16752;53.364;-1.488;2023-12-29T10:32:27;98925.91;;;12.83;40.72
29879;BME280;16752;53.364;-1.488;2023-12-29T10:35:14;98896.63;;;13.40;39.60
29879;BME280;16752;53.364;-1.488;2023-12-29T10:38:11;98895.34;;;12.65;40.74
29879;BME280;16752;53.364;-1.488;2023-12-29T10:41:18;98922.38;;;13.28;39.75
29879;BME280;16752;53.364;-1.488;2023-12-29T10:44:06;98930.47;;;12.99;40.07
29879;BME280;16752;53.364;-1.488;2023-12-29T10:46:50;98938.13;;;12.93;40.52
29879;BME280;16752;53.364;-1.488;2023-12-29T10:49:34;98937.53;;;12.36;41.66
29879;BME280;16752;53.364;-1.488;2023-12-29T10:52:18;98917.78;;;12.59;41.34
29879;BME280;16752;53.364;-1.488;2023-12-29T10:55:07;98931.09;;;13.29;40.66
29879;BME280;16752;53.364;-1.488;2023-12-29T10:57:59;98934.59;;;13.37;40.48
29879;BME280;16752;53.364;-1.488;2023-12-29T11:00:44;98915.31;;;13.55;39.95
29879;BME280;16752;53.364;-1.488;2023-12-29T11:03:28;98929.78;;;13.85;39.71
29879;BME280;16752;53.364;-1.488;2023-12-29T11:06:12;98941.75;;;12.92;41.11
29879;BME280;16752;53.364;-1.488;2023-12-29T11:08:57;98941.97;;;13.60;40.14
29879;BME280;16752;53.364;-1.488;2023-12-29T11:11:41;98924.00;;;13.47;40.28
29879;BME280;16752;53.364;-1.488;2023-12-29T11:14:27;98955.25;;;12.97;41.79
29879;BME280;16752;53.364;-1.488;2023-12-29T11:17:14;98959.22;;;12.65;42.56
29879;BME280;16752;53.364;-1.488;2023-12-29T11:20:01;98958.44;;;13.18;41.21
29879;BME280;16752;53.364;-1.488;2023-12-29T11:22:46;98941.56;;;13.47;40.41
29879;BME280;16752;53.364;-1.488;2023-12-29T11:25:30;98941.44;;;13.12;40.70
29879;BME280;16752;53.364;-1.488;2023-12-29T11:28:14;98955.16;;;12.53;41.88
29879;BME280;16752;53.364;-1.488;2023-12-29T11:30:58;98950.66;;;13.16;40.55
29879;BME280;16752;53.364;-1.488;2023-12-29T11:33:50;98916.28;;;13.28;40.40
29879;BME280;16752;53.364;-1.488;2023-12-29T11:36:43;98920.06;;;13.51;40.02
29879;BME280;16752;53.364;-1.488;2023-12-29T11:40:10;98929.19;;;13.39;40.19
29879;BME280;16752;53.364;-1.488;2023-12-29T11:43:02;98952.13;;;13.81;40.05
29879;BME280;16752;53.364;-1.488;2023-12-29T11:45:46;98921.19;;;13.49;39.87
29879;BME280;16752;53.364;-1.488;2023-12-29T11:48:53;98931.84;;;14.33;39.02
29879;BME280;16752;53.364;-1.488;2023-12-29T11:51:43;98935.00;;;13.76;40.17
29879;BME280;16752;53.364;-1.488;2023-12-29T11:54:27;98917.13;;;14.73;38.53
29879;BME280;16752;53.364;-1.488;2023-12-29T11:57:11;98920.31;;;14.00;38.96
29879;BME280;16752;53.364;-1.488;2023-12-29T11:59:55;98906.53;;;13.72;39.28
29879;BME280;16752;53.364;-1.488;2023-12-29T12:02:40;98935.19;;;14.51;38.83
29879;BME280;16752;53.364;-1.488;2023-12-29T12:05:44;98950.38;;;13.63;39.89
29879;BME280;16752;53.364;-1.488;2023-12-29T12:08:33;98938.16;;;14.48;38.42
29879;BME280;16752;53.364;-1.488;2023-12-29T12:17:35;98976.09;;;13.95;39.66
29879;BME280;16752;53.364;-1.488;2023-12-29T12:20:20;98961.22;;;13.34;40.11
29879;BME280;16752;53.364;-1.488;2023-12-29T12:23:11;98946.53;;;13.50;39.90
29879;BME280;16752;53.364;-1.488;2023-12-29T12:26:00;98934.75;;;14.22;39.06
29879;BME280;16752;53.364;-1.488;2023-12-29T12:28:44;98897.59;;;14.33;38.83
29879;BME280;16752;53.364;-1.488;2023-12-29T12:31:29;98926.81;;;14.14;38.94
29879;BME280;16752;53.364;-1.488;2023-12-29T12:34:13;98946.03;;;13.46;40.52
29879;BME280;16752;53.364;-1.488;2023-12-29T12:36:57;98955.00;;;13.43;40.96
29879;BME280;16752;53.364;-1.488;2023-12-29T12:39:43;98947.66;;;13.73;40.39
29879;BME280;16752;53.364;-1.488;2023-12-29T12:42:27;98913.13;;;14.52;39.10
29879;BME280;16752;53.364;-1.488;2023-12-29T12:45:12;98937.91;;;14.76;38.57
29879;BME280;16752;53.364;-1.488;2023-12-29T12:48:13;98921.72;;;14.71;38.96
29879;BME280;16752;53.364;-1.488;2023-12-29T12:50:59;98917.06;;;14.48;38.79
29879;BME280;16752;53.364;-1.488;2023-12-29T12:53:44;98933.16;;;14.03;40.36
29879;BME280;16752;53.364;-1.488;2023-12-29T12:56:28;98946.50;;;14.35;39.28
29879;BME280;16752;53.364;-1.488;2023-12-29T12:59:13;98916.28;;;14.56;38.91
29879;BME280;16752;53.364;-1.488;2023-12-29T13:01:57;98939.44;;;14.44;39.20
29879;BME280;16752;53.364;-1.488;2023-12-29T13:04:42;98952.03;;;13.21;41.46
29879;BME280;16752;53.364;-1.488;2023-12-29T13:07:26;98954.00;;;14.56;38.90
29879;BME280;16752;53.364;-1.488;2023-12-29T13:10:10;98952.53;;;14.28;39.57
29879;BME280;16752;53.364;-1.488;2023-12-29T13:12:54;98948.09;;;14.28;39.62
29879;BME280;16752;53.364;-1.488;2023-12-29T13:15:47;98954.69;;;13.21;41.95
29879;BME280;16752;53.364;-1.488;2023-12-29T13:18:32;98959.50;;;13.69;41.51
29879;BME280;16752;53.364;-1.488;2023-12-29T13:21:17;98954.06;;;14.04;40.91
29879;BME280;16752;53.364;-1.488;2023-12-29T13:24:04;98954.22;;;14.37;40.09
29879;BME280;16752;53.364;-1.488;2023-12-29T13:26:51;98962.66;;;12.48;44.64
29879;BME280;16752;53.364;-1.488;2023-12-29T13:29:39;98969.81;;;13.88;41.82
29879;BME280;16752;53.364;-1.488;2023-12-29T13:32:26;98969.34;;;13.67;41.71
29879;BME280;16752;53.364;-1.488;2023-12-29T13:35:37;98962.63;;;14.06;41.47
29879;BME280;16752;53.364;-1.488;2023-12-29T13:38:29;98965.41;;;13.45;42.92
29879;BME280;16752;53.364;-1.488;2023-12-29T13:41:17;98952.56;;;13.68;42.25
29879;BME280;16752;53.364;-1.488;2023-12-29T13:44:03;98925.19;;;14.21;41.30
29879;BME280;16752;53.364;-1.488;2023-12-29T13:46:49;98966.63;;;14.45;40.61
29879;BME280;16752;53.364;-1.488;2023-12-29T13:49:35;98970.19;;;14.01;42.42
29879;BME280;16752;53.364;-1.488;2023-12-29T13:52:20;98921.31;;;13.03;43.41
29879;BME280;16752;53.364;-1.488;2023-12-29T13:55:05;98954.50;;;13.66;43.06
29879;BME280;16752;53.364;-1.488;2023-12-29T13:57:50;98932.88;;;14.48;41.49
29879;BME280;16752;53.364;-1.488;2023-12-29T14:00:37;98948.34;;;14.51;41.41
29879;BME280;16752;53.364;-1.488;2023-12-29T14:03:26;98902.63;;;14.18;41.29
29879;BME280;16752;53.364;-1.488;2023-12-29T14:06:13;98949.44;;;14.83;40.86
29879;BME280;16752;53.364;-1.488;2023-12-29T14:09:04;98924.84;;;13.82;42.41
29879;BME280;16752;53.364;-1.488;2023-12-29T14:11:49;98924.41;;;14.79;41.12
29879;BME280;16752;53.364;-1.488;2023-12-29T14:14:33;98926.41;;;14.43;41.30
29879;BME280;16752;53.364;-1.488;2023-12-29T14:17:21;98905.28;;;15.01;40.01
29879;BME280;16752;53.364;-1.488;2023-12-29T14:20:06;98902.03;;;14.41;40.70
29879;BME280;16752;53.364;-1.488;2023-12-29T14:22:50;98945.88;;;14.50;41.19
29879;BME280;16752;53.364;-1.488;2023-12-29T14:25:35;98940.25;;;14.02;42.26
29879;BME280;16752;53.364;-1.488;2023-12-29T14:28:20;98964.63;;;15.05;40.85
29879;BME280;16752;53.364;-1.488;2023-12-29T14:31:05;98977.94;;;14.87;41.63
29879;BME280;16752;53.364;-1.488;2023-12-29T14:33:49;98968.94;;;14.14;43.14
29879;BME280;16752;53.364;-1.488;2023-12-29T14:36:34;98945.56;;;13.85;43.50
29879;BME280;16752;53.364;-1.488;2023-12-29T14:39:19;98952.63;;;12.97;45.79